sensor_id;sensor_type;location;lat;lon;timestamp;P1;durP1;ratioP1;P2;durP2;ratioP2
17091;SDS011;8661;45.700;4.880;2023-05-10T00:02:07;0.10;;;0.10;;
17091;SDS011;8661;45.700;4.880;2023-05-10T00:04:34;0.10;;;0.10;;
17091;SDS011;8661;45.700;4.880;2023-05-10T00:07:01;0.10;;;0.10;;
17091;SDS011;8661;45.700;4.880;2023-05-10T00:09:27;0.10;;;0.10;;
17091;SDS011;8661;45.700;4.880;2023-05-10T00:11:54;0.10;;;0.10;;
17091;SDS011;8661;45.700;4.880;2023-05-10T00:14:24;0.10;;;0.10;;
17091;SDS011;8661;45.700;4.880;2023-05-10T00:16:52;0.10;;;0.10;;
17091;SDS011;8661;45.700;4.880;2023-05-10T00:19:18;0.10;;;0.10;;
17091;SDS011;8661;45.700;4.880;2023-05-10T00:21:45;0.10;;;0.10;;
17091;SDS011;8661;45.700;4.880;2023-05-10T00:24:12;0.10;;;0.10;;
17091;SDS011;8661;45.700;4.880;2023-05-10T00:26:39;0.10;;;0.10;;
17091;SDS011;8661;45.700;4.880;2023-05-10T00:29:07;0.10;;;0.10;;
17091;SDS011;8661;45.700;4.880;2023-05-10T00:31:35;0.10;;;0.10;;
17091;SDS011;8661;45.700;4.880;2023-05-10T00:34:02;0.10;;;0.10;;
17091;SDS011;8661;45.700;4.880;2023-05-10T00:36:29;0.10;;;0.10;;
17091;SDS011;8661;45.700;4.880;2023-05-10T00:38:56;0.10;;;0.10;;
17091;SDS011;8661;45.700;4.880;2023-05-10T00:41:23;0.10;;;0.10;;
17091;SDS011;8661;45.700;4.880;2023-05-10T00:43:49;0.10;;;0.10;;
17091;SDS011;8661;45.700;4.880;2023-05-10T00:46:16;0.10;;;0.10;;
17091;SDS011;8661;45.700;4.880;2023-05-10T00:48:45;0.13;;;0.13;;
17091;SDS011;8661;45.700;4.880;2023-05-10T00:51:12;0.10;;;0.10;;
17091;SDS011;8661;45.700;4.880;2023-05-10T00:53:39;0.10;;;0.10;;
17091;SDS011;8661;45.700;4.880;2023-05-10T00:56:07;0.10;;;0.10;;
17091;SDS011;8661;45.700;4.880;2023-05-10T00:58:34;3.63;;;1.40;;
17091;SDS011;8661;45.700;4.880;2023-05-10T01:01:01;3.63;;;0.93;;
17091;SDS011;8661;45.700;4.880;2023-05-10T01:03:28;2.50;;;0.80;;
17091;SDS011;8661;45.700;4.880;2023-05-10T01:05:57;1.70;;;0.90;;
17091;SDS011;8661;45.700;4.880;2023-05-10T01:08:23;1.60;;;1.03;;
17091;SDS011;8661;45.700;4.880;2023-05-10T01:10:51;0.93;;;0.90;;
17091;SDS011;8661;45.700;4.880;2023-05-10T01:13:18;2.00;;;0.93;;
17091;SDS011;8661;45.700;4.880;2023-05-10T01:15:55;1.50;;;0.70;;
17091;SDS011;8661;45.700;4.880;2023-05-10T01:18:22;0.90;;;0.60;;
17091;SDS011;8661;45.700;4.880;2023-05-10T01:20:53;1.23;;;0.67;;
17091;SDS011;8661;45.700;4.880;2023-05-10T01:23:31;2.77;;;1.23;;
17091;SDS011;8661;45.700;4.880;2023-05-10T01:26:14;0.60;;;0.60;;
17091;SDS011;8661;45.700;4.880;2023-05-10T01:29:13;2.50;;;0.83;;
17091;SDS011;8661;45.700;4.880;2023-05-10T01:32:13;2.83;;;0.83;;
17091;SDS011;8661;45.700;4.880;2023-05-10T01:34:54;2.77;;;0.80;;
17091;SDS011;8661;45.700;4.880;2023-05-10T01:37:29;0.57;;;0.57;;
17091;SDS011;8661;45.700;4.880;2023-05-10T01:40:03;1.97;;;0.60;;
17091;SDS011;8661;45.700;4.880;2023-05-10T01:42:40;0.70;;;0.43;;
17091;SDS011;8661;45.700;4.880;2023-05-10T01:45:14;2.03;;;0.90;;
17091;SDS011;8661;45.700;4.880;2023-05-10T01:47:50;2.60;;;1.03;;
17091;SDS011;8661;45.700;4.880;2023-05-10T01:50:26;2.40;;;1.00;;
17091;SDS011;8661;45.700;4.880;2023-05-10T01:52:56;2.60;;;1.33;;
17091;SDS011;8661;45.700;4.880;2023-05-10T01:55:26;4.00;;;1.40;;
17091;SDS011;8661;45.700;4.880;2023-05-10T01:57:58;3.17;;;1.67;;
17091;SDS011;8661;45.700;4.880;2023-05-10T02:00:29;5.40;;;1.67;;
17091;SDS011;8661;45.700;4.880;2023-05-10T02:02:58;4.40;;;2.27;;
17091;SDS011;8661;45.700;4.880;2023-05-10T02:05:28;2.30;;;1.83;;
17091;SDS011;8661;45.700;4.880;2023-05-10T02:07:56;4.90;;;1.73;;
17091;SDS011;8661;45.700;4.880;2023-05-10T02:10:25;1.93;;;1.57;;
17091;SDS011;8661;45.700;4.880;2023-05-10T02:12:53;6.37;;;1.97;;
17091;SDS011;8661;45.700;4.880;2023-05-10T02:15:24;4.37;;;2.60;;
17091;SDS011;8661;45.700;4.880;2023-05-10T02:17:52;3.63;;;2.10;;
17091;SDS011;8661;45.700;4.880;2023-05-10T02:20:23;2.07;;;1.60;;
17091;SDS011;8661;45.700;4.880;2023-05-10T02:22:52;3.73;;;1.10;;
17091;SDS011;8661;45.700;4.880;2023-05-10T02:25:21;5.83;;;1.30;;
17091;SDS011;8661;45.700;4.880;2023-05-10T02:27:49;1.00;;;0.80;;
17091;SDS011;8661;45.700;4.880;2023-05-10T02:30:17;1.23;;;0.80;;
17091;SDS011;8661;45.700;4.880;2023-05-10T02:32:45;2.40;;;0.90;;
17091;SDS011;8661;45.700;4.880;2023-05-10T02:35:13;3.17;;;0.83;;
17091;SDS011;8661;45.700;4.880;2023-05-10T02:37:42;3.13;;;0.90;;
17091;SDS011;8661;45.700;4.880;2023-05-10T02:40:11;1.40;;;0.80;;
17091;SDS011;8661;45.700;4.880;2023-05-10T02:42:41;3.80;;;0.90;;
17091;SDS011;8661;45.700;4.880;2023-05-10T02:45:11;1.20;;;0.67;;
17091;SDS011;8661;45.700;4.880;2023-05-10T02:47:43;2.13;;;1.13;;
17091;SDS011;8661;45.700;4.880;2023-05-10T02:50:10;1.57;;;0.83;;
17091;SDS011;8661;45.700;4.880;2023-05-10T02:52:39;0.87;;;0.70;;
17091;SDS011;8661;45.700;4.880;2023-05-10T02:55:11;0.93;;;0.83;;
17091;SDS011;8661;45.700;4.880;2023-05-10T02:57:41;2.77;;;0.90;;
17091;SDS011;8661;45.700;4.880;2023-05-10T03:00:11;2.23;;;0.93;;
17091;SDS011;8661;45.700;4.880;2023-05-10T03:02:38;1.20;;;1.00;;
17091;SDS011;8661;45.700;4.880;2023-05-10T03:05:05;4.80;;;1.00;;
17091;SDS011;8661;45.700;4.880;2023-05-10T03:07:32;2.73;;;1.10;;
17091;SDS011;8661;45.700;4.880;2023-05-10T03:09:59;1.80;;;1.13;;
17091;SDS011;8661;45.700;4.880;2023-05-10T03:12:31;9.60;;;1.60;;
17091;SDS011;8661;45.700;4.880;2023-05-10T03:15:09;2.90;;;1.20;;
17091;SDS011;8661;45.700;4.880;2023-05-10T03:17:46;2.70;;;1.23;;
17091;SDS011;8661;45.700;4.880;2023-05-10T03:20:16;3.77;;;1.00;;
17091;SDS011;8661;45.700;4.880;2023-05-10T03:22:49;1.90;;;1.00;;
17091;SDS011;8661;45.700;4.880;2023-05-10T03:25:19;2.67;;;0.90;;
17091;SDS011;8661;45.700;4.880;2023-05-10T03:27:50;3.17;;;1.13;;
17091;SDS011;8661;45.700;4.880;2023-05-10T03:30:18;2.90;;;1.23;;
17091;SDS011;8661;45.700;4.880;2023-05-10T03:32:46;3.50;;;1.30;;
17091;SDS011;8661;45.700;4.880;2023-05-10T03:35:13;7.10;;;1.23;;
17091;SDS011;8661;45.700;4.880;2023-05-10T03:37:40;4.07;;;1.40;;
17091;SDS011;8661;45.700;4.880;2023-05-10T03:40:07;4.57;;;1.20;;
17091;SDS011;8661;45.700;4.880;2023-05-10T03:42:35;4.03;;;1.37;;
17091;SDS011;8661;45.700;4.880;2023-05-10T03:45:04;1.93;;;1.17;;
17091;SDS011;8661;45.700;4.880;2023-05-10T03:47:32;1.90;;;1.10;;
17091;SDS011;8661;45.700;4.880;2023-05-10T03:49:59;2.97;;;1.10;;
17091;SDS011;8661;45.700;4.880;2023-05-10T03:52:26;3.40;;;1.27;;
17091;SDS011;8661;45.700;4.880;2023-05-10T03:54:53;2.63;;;1.27;;
17091;SDS011;8661;45.700;4.880;2023-05-10T03:57:20;5.23;;;1.10;;
17091;SDS011;8661;45.700;4.880;2023-05-10T03:59:47;4.67;;;1.30;;
17091;SDS011;8661;45.700;4.880;2023-05-10T04:02:15;2.30;;;1.10;;
17091;SDS011;8661;45.700;4.880;2023-05-10T04:04:42;4.27;;;1.60;;
17091;SDS011;8661;45.700;4.880;2023-05-10T04:07:09;1.90;;;1.03;;
17091;SDS011;8661;45.700;4.880;2023-05-10T04:09:36;8.67;;;1.83;;
17091;SDS011;8661;45.700;4.880;2023-05-10T04:12:02;6.43;;;1.37;;
17091;SDS011;8661;45.700;4.880;2023-05-10T04:14:30;2.53;;;1.10;;
17091;SDS011;8661;45.700;4.880;2023-05-10T04:16:57;4.83;;;1.57;;
17091;SDS011;8661;45.700;4.880;2023-05-10T04:19:28;4.43;;;1.73;;
17091;SDS011;8661;45.700;4.880;2023-05-10T04:21:55;7.97;;;1.47;;
17091;SDS011;8661;45.700;4.880;2023-05-10T04:24:22;6.87;;;1.97;;
17091;SDS011;8661;45.700;4.880;2023-05-10T04:26:49;3.23;;;1.27;;
17091;SDS011;8661;45.700;4.880;2023-05-10T04:29:16;3.77;;;1.73;;
17091;SDS011;8661;45.700;4.880;2023-05-10T04:31:43;6.70;;;2.80;;
17091;SDS011;8661;45.700;4.880;2023-05-10T04:34:10;3.53;;;2.20;;
17091;SDS011;8661;45.700;4.880;2023-05-10T04:36:38;10.83;;;2.00;;
17091;SDS011;8661;45.700;4.880;2023-05-10T04:39:05;3.80;;;1.47;;
17091;SDS011;8661;45.700;4.880;2023-05-10T04:41:32;4.60;;;1.70;;
17091;SDS011;8661;45.700;4.880;2023-05-10T04:43:59;4.73;;;1.93;;
17091;SDS011;8661;45.700;4.880;2023-05-10T04:46:26;6.03;;;1.60;;
17091;SDS011;8661;45.700;4.880;2023-05-10T04:48:54;10.47;;;2.50;;
17091;SDS011;8661;45.700;4.880;2023-05-10T04:51:21;6.50;;;2.70;;
17091;SDS011;8661;45.700;4.880;2023-05-10T04:53:50;2.07;;;1.60;;
17091;SDS011;8661;45.700;4.880;2023-05-10T04:56:17;7.03;;;1.50;;
17091;SDS011;8661;45.700;4.880;2023-05-10T04:58:44;8.03;;;1.80;;
17091;SDS011;8661;45.700;4.880;2023-05-10T05:01:11;4.13;;;1.30;;
17091;SDS011;8661;45.700;4.880;2023-05-10T05:03:38;3.70;;;1.50;;
17091;SDS011;8661;45.700;4.880;2023-05-10T05:06:05;3.63;;;1.33;;
17091;SDS011;8661;45.700;4.880;2023-05-10T05:08:32;2.90;;;1.43;;
17091;SDS011;8661;45.700;4.880;2023-05-10T05:13:50;7.07;;;1.43;;
17091;SDS011;8661;45.700;4.880;2023-05-10T05:16:17;4.97;;;1.40;;
17091;SDS011;8661;45.700;4.880;2023-05-10T05:19:20;5.57;;;1.43;;
17091;SDS011;8661;45.700;4.880;2023-05-10T05:22:44;3.33;;;1.40;;
17091;SDS011;8661;45.700;4.880;2023-05-10T05:25:02;6.57;;;1.70;;
17091;SDS011;8661;45.700;4.880;2023-05-10T05:27:34;4.70;;;1.57;;
17091;SDS011;8661;45.700;4.880;2023-05-10T05:30:02;3.40;;;1.40;;
17091;SDS011;8661;45.700;4.880;2023-05-10T05:32:30;3.50;;;1.50;;
17091;SDS011;8661;45.700;4.880;2023-05-10T05:34:57;7.20;;;1.63;;
17091;SDS011;8661;45.700;4.880;2023-05-10T05:40:12;6.80;;;1.80;;
17091;SDS011;8661;45.700;4.880;2023-05-10T05:42:44;4.60;;;1.30;;
17091;SDS011;8661;45.700;4.880;2023-05-10T05:45:17;8.33;;;1.53;;
17091;SDS011;8661;45.700;4.880;2023-05-10T05:47:48;6.03;;;1.63;;
17091;SDS011;8661;45.700;4.880;2023-05-10T05:50:15;5.87;;;1.40;;
17091;SDS011;8661;45.700;4.880;2023-05-10T05:52:43;4.60;;;1.50;;
17091;SDS011;8661;45.700;4.880;2023-05-10T05:55:10;5.87;;;1.70;;
17091;SDS011;8661;45.700;4.880;2023-05-10T05:57:38;4.37;;;1.53;;
17091;SDS011;8661;45.700;4.880;2023-05-10T06:00:08;3.17;;;1.43;;
17091;SDS011;8661;45.700;4.880;2023-05-10T06:02:37;7.33;;;1.90;;
17091;SDS011;8661;45.700;4.880;2023-05-10T06:05:11;2.80;;;1.20;;
17091;SDS011;8661;45.700;4.880;2023-05-10T06:07:41;3.70;;;1.40;;
17091;SDS011;8661;45.700;4.880;2023-05-10T06:10:09;7.97;;;2.00;;
17091;SDS011;8661;45.700;4.880;2023-05-10T06:12:36;3.23;;;1.23;;
17091;SDS011;8661;45.700;4.880;2023-05-10T06:15:04;3.40;;;1.37;;
17091;SDS011;8661;45.700;4.880;2023-05-10T06:17:35;3.70;;;1.30;;
17091;SDS011;8661;45.700;4.880;2023-05-10T06:20:04;4.00;;;1.50;;
17091;SDS011;8661;45.700;4.880;2023-05-10T06:22:31;5.70;;;1.60;;
17091;SDS011;8661;45.700;4.880;2023-05-10T06:24:59;4.13;;;1.37;;
17091;SDS011;8661;45.700;4.880;2023-05-10T06:27:27;7.63;;;1.57;;
17091;SDS011;8661;45.700;4.880;2023-05-10T06:29:54;3.53;;;1.50;;
17091;SDS011;8661;45.700;4.880;2023-05-10T06:32:24;4.97;;;1.53;;
17091;SDS011;8661;45.700;4.880;2023-05-10T06:34:51;3.20;;;1.20;;
17091;SDS011;8661;45.700;4.880;2023-05-10T06:40:09;5.07;;;1.17;;
17091;SDS011;8661;45.700;4.880;2023-05-10T06:42:37;8.77;;;3.20;;
17091;SDS011;8661;45.700;4.880;2023-05-10T06:45:05;8.27;;;2.90;;
17091;SDS011;8661;45.700;4.880;2023-05-10T06:47:35;3.13;;;1.10;;
17091;SDS011;8661;45.700;4.880;2023-05-10T06:50:02;5.97;;;1.10;;
17091;SDS011;8661;45.700;4.880;2023-05-10T06:52:39;5.30;;;1.47;;
17091;SDS011;8661;45.700;4.880;2023-05-10T06:55:10;4.03;;;1.50;;
17091;SDS011;8661;45.700;4.880;2023-05-10T06:57:38;5.50;;;1.53;;
17091;SDS011;8661;45.700;4.880;2023-05-10T07:00:05;3.23;;;1.30;;
17091;SDS011;8661;45.700;4.880;2023-05-10T07:02:37;4.07;;;1.17;;
17091;SDS011;8661;45.700;4.880;2023-05-10T07:05:04;4.00;;;1.33;;
17091;SDS011;8661;45.700;4.880;2023-05-10T07:07:32;2.90;;;1.33;;
17091;SDS011;8661;45.700;4.880;2023-05-10T07:09:59;3.67;;;1.23;;
17091;SDS011;8661;45.700;4.880;2023-05-10T07:12:26;1.83;;;1.03;;
17091;SDS011;8661;45.700;4.880;2023-05-10T07:14:53;3.93;;;1.23;;
17091;SDS011;8661;45.700;4.880;2023-05-10T07:17:20;4.20;;;1.53;;
17091;SDS011;8661;45.700;4.880;2023-05-10T07:19:48;3.67;;;1.10;;
17091;SDS011;8661;45.700;4.880;2023-05-10T07:22:15;4.90;;;1.30;;
17091;SDS011;8661;45.700;4.880;2023-05-10T07:24:42;3.20;;;1.10;;
17091;SDS011;8661;45.700;4.880;2023-05-10T07:27:09;4.97;;;1.33;;
17091;SDS011;8661;45.700;4.880;2023-05-10T07:29:36;4.87;;;1.27;;
17091;SDS011;8661;45.700;4.880;2023-05-10T07:32:03;5.30;;;1.57;;
17091;SDS011;8661;45.700;4.880;2023-05-10T07:34:30;3.63;;;1.13;;
17091;SDS011;8661;45.700;4.880;2023-05-10T07:36:59;4.90;;;1.37;;
17091;SDS011;8661;45.700;4.880;2023-05-10T07:39:26;2.70;;;1.20;;
17091;SDS011;8661;45.700;4.880;2023-05-10T07:41:53;4.30;;;1.40;;
17091;SDS011;8661;45.700;4.880;2023-05-10T07:44:21;5.10;;;1.40;;
17091;SDS011;8661;45.700;4.880;2023-05-10T07:46:47;5.07;;;1.50;;
17091;SDS011;8661;45.700;4.880;2023-05-10T07:49:14;6.63;;;1.63;;
17091;SDS011;8661;45.700;4.880;2023-05-10T07:51:41;7.07;;;1.80;;
17091;SDS011;8661;45.700;4.880;2023-05-10T07:54:10;6.37;;;1.37;;
17091;SDS011;8661;45.700;4.880;2023-05-10T07:56:37;4.97;;;1.50;;
17091;SDS011;8661;45.700;4.880;2023-05-10T07:59:05;4.23;;;1.50;;
17091;SDS011;8661;45.700;4.880;2023-05-10T08:01:33;5.30;;;1.37;;
17091;SDS011;8661;45.700;4.880;2023-05-10T08:04:00;6.07;;;1.63;;
17091;SDS011;8661;45.700;4.880;2023-05-10T08:06:27;4.70;;;1.50;;
17091;SDS011;8661;45.700;4.880;2023-05-10T08:08:55;5.70;;;1.40;;
17091;SDS011;8661;45.700;4.880;2023-05-10T08:11:23;6.43;;;1.50;;
17091;SDS011;8661;45.700;4.880;2023-05-10T08:13:50;4.57;;;1.60;;
17091;SDS011;8661;45.700;4.880;2023-05-10T08:16:17;5.83;;;1.07;;
17091;SDS011;8661;45.700;4.880;2023-05-10T08:18:45;5.77;;;1.50;;
17091;SDS011;8661;45.700;4.880;2023-05-10T08:21:12;5.90;;;1.33;;
17091;SDS011;8661;45.700;4.880;2023-05-10T08:23:39;4.23;;;1.30;;
17091;SDS011;8661;45.700;4.880;2023-05-10T08:26:08;4.17;;;1.60;;
17091;SDS011;8661;45.700;4.880;2023-05-10T08:28:36;4.93;;;1.17;;
17091;SDS011;8661;45.700;4.880;2023-05-10T08:31:04;5.27;;;1.40;;
17091;SDS011;8661;45.700;4.880;2023-05-10T08:33:32;3.37;;;1.33;;
17091;SDS011;8661;45.700;4.880;2023-05-10T08:35:59;6.10;;;1.40;;
17091;SDS011;8661;45.700;4.880;2023-05-10T08:38:25;6.53;;;1.43;;
17091;SDS011;8661;45.700;4.880;2023-05-10T08:40:54;5.17;;;1.50;;
17091;SDS011;8661;45.700;4.880;2023-05-10T08:43:23;4.83;;;1.60;;
17091;SDS011;8661;45.700;4.880;2023-05-10T08:45:54;3.47;;;1.50;;
17091;SDS011;8661;45.700;4.880;2023-05-10T08:48:30;12.47;;;1.70;;
17091;SDS011;8661;45.700;4.880;2023-05-10T08:51:08;5.00;;;1.50;;
17091;SDS011;8661;45.700;4.880;2023-05-10T08:53:36;3.00;;;1.30;;
17091;SDS011;8661;45.700;4.880;2023-05-10T08:56:04;5.03;;;1.40;;
17091;SDS011;8661;45.700;4.880;2023-05-10T08:58:31;4.30;;;1.30;;
17091;SDS011;8661;45.700;4.880;2023-05-10T09:00:59;3.50;;;1.10;;
17091;SDS011;8661;45.700;4.880;2023-05-10T09:03:27;3.80;;;1.17;;
17091;SDS011;8661;45.700;4.880;2023-05-10T09:05:54;7.57;;;1.70;;
17091;SDS011;8661;45.700;4.880;2023-05-10T09:08:22;4.77;;;1.50;;
17091;SDS011;8661;45.700;4.880;2023-05-10T09:10:51;4.27;;;1.50;;
17091;SDS011;8661;45.700;4.880;2023-05-10T09:13:18;2.93;;;1.10;;
17091;SDS011;8661;45.700;4.880;2023-05-10T09:15:47;10.20;;;1.10;;
17091;SDS011;8661;45.700;4.880;2023-05-10T09:18:15;3.90;;;1.27;;
17091;SDS011;8661;45.700;4.880;2023-05-10T09:20:42;6.37;;;1.70;;
17091;SDS011;8661;45.700;4.880;2023-05-10T09:23:10;5.37;;;1.63;;
17091;SDS011;8661;45.700;4.880;2023-05-10T09:25:36;4.07;;;1.40;;
17091;SDS011;8661;45.700;4.880;2023-05-10T09:28:05;7.00;;;1.60;;
17091;SDS011;8661;45.700;4.880;2023-05-10T09:30:33;6.33;;;1.33;;
17091;SDS011;8661;45.700;4.880;2023-05-10T09:33:01;8.07;;;1.70;;
17091;SDS011;8661;45.700;4.880;2023-05-10T09:35:30;4.97;;;1.20;;
17091;SDS011;8661;45.700;4.880;2023-05-10T09:37:59;7.47;;;1.53;;
17091;SDS011;8661;45.700;4.880;2023-05-10T09:40:27;8.50;;;1.70;;
17091;SDS011;8661;45.700;4.880;2023-05-10T09:42:56;10.90;;;2.03;;
17091;SDS011;8661;45.700;4.880;2023-05-10T09:45:25;3.90;;;1.40;;
17091;SDS011;8661;45.700;4.880;2023-05-10T09:47:52;8.03;;;1.90;;
17091;SDS011;8661;45.700;4.880;2023-05-10T09:50:20;6.27;;;2.13;;
17091;SDS011;8661;45.700;4.880;2023-05-10T09:52:49;5.27;;;1.63;;
17091;SDS011;8661;45.700;4.880;2023-05-10T09:55:17;5.53;;;2.10;;
17091;SDS011;8661;45.700;4.880;2023-05-10T09:57:45;6.73;;;2.10;;
17091;SDS011;8661;45.700;4.880;2023-05-10T10:00:16;7.20;;;2.27;;
17091;SDS011;8661;45.700;4.880;2023-05-10T10:02:45;6.57;;;1.60;;
17091;SDS011;8661;45.700;4.880;2023-05-10T10:05:13;4.53;;;1.13;;
17091;SDS011;8661;45.700;4.880;2023-05-10T10:07:41;7.37;;;1.50;;
17091;SDS011;8661;45.700;4.880;2023-05-10T10:10:10;4.13;;;1.17;;
17091;SDS011;8661;45.700;4.880;2023-05-10T10:12:40;4.20;;;1.37;;
17091;SDS011;8661;45.700;4.880;2023-05-10T10:15:08;4.63;;;1.17;;
17091;SDS011;8661;45.700;4.880;2023-05-10T10:17:36;6.43;;;1.73;;
17091;SDS011;8661;45.700;4.880;2023-05-10T10:20:05;4.20;;;1.60;;
17091;SDS011;8661;45.700;4.880;2023-05-10T10:22:33;5.47;;;1.70;;
17091;SDS011;8661;45.700;4.880;2023-05-10T10:25:00;3.10;;;1.20;;
17091;SDS011;8661;45.700;4.880;2023-05-10T10:27:32;3.50;;;1.30;;
17091;SDS011;8661;45.700;4.880;2023-05-10T10:30:10;4.87;;;1.37;;
17091;SDS011;8661;45.700;4.880;2023-05-10T10:32:47;3.90;;;1.20;;
17091;SDS011;8661;45.700;4.880;2023-05-10T10:35:39;4.73;;;1.47;;
17091;SDS011;8661;45.700;4.880;2023-05-10T10:38:07;3.37;;;1.20;;
17091;SDS011;8661;45.700;4.880;2023-05-10T10:40:34;5.53;;;1.53;;
17091;SDS011;8661;45.700;4.880;2023-05-10T10:43:22;2.87;;;1.10;;
17091;SDS011;8661;45.700;4.880;2023-05-10T10:46:09;3.03;;;1.13;;
17091;SDS011;8661;45.700;4.880;2023-05-10T10:48:38;6.90;;;1.93;;
17091;SDS011;8661;45.700;4.880;2023-05-10T10:51:05;3.13;;;1.10;;
17091;SDS011;8661;45.700;4.880;2023-05-10T10:53:32;3.00;;;0.90;;
17091;SDS011;8661;45.700;4.880;2023-05-10T10:56:02;4.03;;;1.20;;
17091;SDS011;8661;45.700;4.880;2023-05-10T10:58:35;3.80;;;1.33;;
17091;SDS011;8661;45.700;4.880;2023-05-10T11:01:10;3.27;;;1.20;;
17091;SDS011;8661;45.700;4.880;2023-05-10T11:03:38;4.87;;;0.93;;
17091;SDS011;8661;45.700;4.880;2023-05-10T11:06:05;5.03;;;1.40;;
17091;SDS011;8661;45.700;4.880;2023-05-10T11:08:34;2.57;;;1.20;;
17091;SDS011;8661;45.700;4.880;2023-05-10T11:11:07;3.33;;;1.10;;
17091;SDS011;8661;45.700;4.880;2023-05-10T11:13:41;5.40;;;1.30;;
17091;SDS011;8661;45.700;4.880;2023-05-10T11:16:10;4.47;;;1.23;;
17091;SDS011;8661;45.700;4.880;2023-05-10T11:18:39;3.77;;;1.40;;
17091;SDS011;8661;45.700;4.880;2023-05-10T11:21:07;5.13;;;1.43;;
17091;SDS011;8661;45.700;4.880;2023-05-10T11:23:47;3.90;;;1.57;;
17091;SDS011;8661;45.700;4.880;2023-05-10T11:26:15;4.97;;;1.83;;
17091;SDS011;8661;45.700;4.880;2023-05-10T11:28:44;5.87;;;1.60;;
17091;SDS011;8661;45.700;4.880;2023-05-10T11:31:15;3.87;;;2.00;;
17091;SDS011;8661;45.700;4.880;2023-05-10T11:33:42;6.27;;;2.50;;
17091;SDS011;8661;45.700;4.880;2023-05-10T11:36:10;3.83;;;1.20;;
17091;SDS011;8661;45.700;4.880;2023-05-10T11:38:38;4.57;;;1.60;;
17091;SDS011;8661;45.700;4.880;2023-05-10T11:41:04;6.43;;;1.73;;
17091;SDS011;8661;45.700;4.880;2023-05-10T11:43:31;5.30;;;1.50;;
17091;SDS011;8661;45.700;4.880;2023-05-10T11:46:00;1.93;;;1.10;;
17091;SDS011;8661;45.700;4.880;2023-05-10T11:48:27;5.23;;;1.40;;
17091;SDS011;8661;45.700;4.880;2023-05-10T11:50:55;3.67;;;1.57;;
17091;SDS011;8661;45.700;4.880;2023-05-10T11:53:23;6.03;;;1.70;;
17091;SDS011;8661;45.700;4.880;2023-05-10T11:55:51;3.50;;;1.30;;
17091;SDS011;8661;45.700;4.880;2023-05-10T11:58:18;2.83;;;1.00;;
17091;SDS011;8661;45.700;4.880;2023-05-10T12:00:46;2.40;;;1.10;;
17091;SDS011;8661;45.700;4.880;2023-05-10T12:03:15;7.97;;;1.70;;
17091;SDS011;8661;45.700;4.880;2023-05-10T12:05:42;5.60;;;1.30;;
17091;SDS011;8661;45.700;4.880;2023-05-10T12:08:12;4.57;;;1.93;;
17091;SDS011;8661;45.700;4.880;2023-05-10T12:10:40;5.30;;;1.60;;
17091;SDS011;8661;45.700;4.880;2023-05-10T12:13:10;5.57;;;1.47;;
17091;SDS011;8661;45.700;4.880;2023-05-10T12:15:38;3.80;;;1.07;;
17091;SDS011;8661;45.700;4.880;2023-05-10T12:18:05;2.70;;;1.30;;
17091;SDS011;8661;45.700;4.880;2023-05-10T12:20:35;3.87;;;1.40;;
17091;SDS011;8661;45.700;4.880;2023-05-10T12:23:02;4.47;;;1.10;;
17091;SDS011;8661;45.700;4.880;2023-05-10T12:25:30;3.60;;;1.00;;
17091;SDS011;8661;45.700;4.880;2023-05-10T12:27:59;4.00;;;1.07;;
17091;SDS011;8661;45.700;4.880;2023-05-10T12:30:29;6.07;;;1.40;;
17091;SDS011;8661;45.700;4.880;2023-05-10T12:33:01;2.90;;;1.47;;
17091;SDS011;8661;45.700;4.880;2023-05-10T12:35:33;5.00;;;1.50;;
17091;SDS011;8661;45.700;4.880;2023-05-10T12:38:23;5.43;;;1.27;;
17091;SDS011;8661;45.700;4.880;2023-05-10T12:40:55;3.40;;;1.23;;
17091;SDS011;8661;45.700;4.880;2023-05-10T12:43:23;5.97;;;1.20;;
17091;SDS011;8661;45.700;4.880;2023-05-10T12:45:50;3.67;;;1.10;;
17091;SDS011;8661;45.700;4.880;2023-05-10T12:48:17;5.00;;;1.10;;
17091;SDS011;8661;45.700;4.880;2023-05-10T12:50:45;3.87;;;1.10;;
17091;SDS011;8661;45.700;4.880;2023-05-10T12:53:12;3.50;;;1.27;;
17091;SDS011;8661;45.700;4.880;2023-05-10T12:55:41;4.90;;;1.23;;
17091;SDS011;8661;45.700;4.880;2023-05-10T12:58:09;3.27;;;1.10;;
17091;SDS011;8661;45.700;4.880;2023-05-10T13:00:36;2.77;;;1.03;;
17091;SDS011;8661;45.700;4.880;2023-05-10T13:03:03;4.07;;;1.20;;
17091;SDS011;8661;45.700;4.880;2023-05-10T13:05:31;5.27;;;1.30;;
17091;SDS011;8661;45.700;4.880;2023-05-10T13:07:58;3.97;;;1.37;;
17091;SDS011;8661;45.700;4.880;2023-05-10T13:10:25;2.67;;;0.87;;
17091;SDS011;8661;45.700;4.880;2023-05-10T13:12:53;3.40;;;1.13;;
17091;SDS011;8661;45.700;4.880;2023-05-10T13:15:20;4.50;;;1.03;;
17091;SDS011;8661;45.700;4.880;2023-05-10T13:17:48;2.40;;;1.20;;
17091;SDS011;8661;45.700;4.880;2023-05-10T13:20:15;4.10;;;1.10;;
17091;SDS011;8661;45.700;4.880;2023-05-10T13:22:42;3.23;;;1.17;;
17091;SDS011;8661;45.700;4.880;2023-05-10T13:25:10;5.93;;;1.10;;
17091;SDS011;8661;45.700;4.880;2023-05-10T13:27:37;4.03;;;1.20;;
17091;SDS011;8661;45.700;4.880;2023-05-10T13:30:07;2.63;;;1.10;;
17091;SDS011;8661;45.700;4.880;2023-05-10T13:32:34;3.60;;;0.80;;
17091;SDS011;8661;45.700;4.880;2023-05-10T13:35:01;5.63;;;1.27;;
17091;SDS011;8661;45.700;4.880;2023-05-10T13:37:29;3.90;;;1.13;;
17091;SDS011;8661;45.700;4.880;2023-05-10T13:39:57;2.93;;;1.30;;
17091;SDS011;8661;45.700;4.880;2023-05-10T13:42:24;3.33;;;1.03;;
17091;SDS011;8661;45.700;4.880;2023-05-10T13:44:51;3.80;;;1.37;;
17091;SDS011;8661;45.700;4.880;2023-05-10T13:47:19;6.63;;;1.03;;
17091;SDS011;8661;45.700;4.880;2023-05-10T13:49:47;3.60;;;1.00;;
17091;SDS011;8661;45.700;4.880;2023-05-10T13:52:14;7.37;;;1.40;;
17091;SDS011;8661;45.700;4.880;2023-05-10T13:54:41;5.43;;;1.30;;
17091;SDS011;8661;45.700;4.880;2023-05-10T13:57:07;2.83;;;1.30;;
17091;SDS011;8661;45.700;4.880;2023-05-10T13:59:36;2.23;;;1.30;;
17091;SDS011;8661;45.700;4.880;2023-05-10T14:02:03;4.33;;;1.10;;
17091;SDS011;8661;45.700;4.880;2023-05-10T14:04:32;2.67;;;1.10;;
17091;SDS011;8661;45.700;4.880;2023-05-10T14:07:00;2.03;;;0.90;;
17091;SDS011;8661;45.700;4.880;2023-05-10T14:09:27;2.13;;;0.87;;
17091;SDS011;8661;45.700;4.880;2023-05-10T14:11:54;5.57;;;0.90;;
17091;SDS011;8661;45.700;4.880;2023-05-10T14:14:21;2.97;;;1.00;;
17091;SDS011;8661;45.700;4.880;2023-05-10T14:16:47;3.00;;;1.33;;
17091;SDS011;8661;45.700;4.880;2023-05-10T14:19:14;7.23;;;1.13;;
17091;SDS011;8661;45.700;4.880;2023-05-10T14:21:43;4.43;;;1.20;;
17091;SDS011;8661;45.700;4.880;2023-05-10T14:24:10;3.73;;;1.30;;
17091;SDS011;8661;45.700;4.880;2023-05-10T14:26:36;5.07;;;1.17;;
17091;SDS011;8661;45.700;4.880;2023-05-10T14:29:03;2.63;;;1.10;;
17091;SDS011;8661;45.700;4.880;2023-05-10T14:31:30;2.93;;;1.30;;
17091;SDS011;8661;45.700;4.880;2023-05-10T14:33:57;4.97;;;1.57;;
17091;SDS011;8661;45.700;4.880;2023-05-10T14:36:24;5.50;;;1.53;;
17091;SDS011;8661;45.700;4.880;2023-05-10T14:38:52;6.30;;;1.43;;
17091;SDS011;8661;45.700;4.880;2023-05-10T14:41:19;2.70;;;0.97;;
17091;SDS011;8661;45.700;4.880;2023-05-10T14:43:46;6.27;;;1.30;;
17091;SDS011;8661;45.700;4.880;2023-05-10T14:46:13;5.03;;;1.30;;
17091;SDS011;8661;45.700;4.880;2023-05-10T14:48:40;4.43;;;1.17;;
17091;SDS011;8661;45.700;4.880;2023-05-10T14:51:07;6.10;;;1.30;;
17091;SDS011;8661;45.700;4.880;2023-05-10T14:53:34;5.20;;;1.20;;
17091;SDS011;8661;45.700;4.880;2023-05-10T14:56:03;7.63;;;2.00;;
17091;SDS011;8661;45.700;4.880;2023-05-10T14:58:30;7.03;;;1.50;;
17091;SDS011;8661;45.700;4.880;2023-05-10T15:00:56;4.67;;;1.53;;
17091;SDS011;8661;45.700;4.880;2023-05-10T15:03:23;3.03;;;0.93;;
17091;SDS011;8661;45.700;4.880;2023-05-10T15:05:51;7.77;;;1.17;;
17091;SDS011;8661;45.700;4.880;2023-05-10T15:08:18;7.63;;;1.80;;
17091;SDS011;8661;45.700;4.880;2023-05-10T15:10:45;3.50;;;1.27;;
17091;SDS011;8661;45.700;4.880;2023-05-10T15:13:14;5.30;;;1.30;;
17091;SDS011;8661;45.700;4.880;2023-05-10T15:15:41;5.43;;;1.13;;
17091;SDS011;8661;45.700;4.880;2023-05-10T15:18:08;5.80;;;1.23;;
17091;SDS011;8661;45.700;4.880;2023-05-10T15:20:35;12.90;;;2.20;;